Time;durP1;ratioP1;P1;durP2;ratioP2;P2;SDS_P1;SDS_P2;PMS_P1;PMS_P2;Temp;Humidity;BMP_temperature;BMP_pressure;BME280_temperature;BME280_humidity;BME280_pressure;Samples;Min_cycle;Max_cycle;Signal;HPM_P1;HPM_P2
2024/02/14 00:01:08;;;;;;;12.90;5.80;;;1.10;99.90;;;;;;6214668;23;20078;-75
2024/02/14 00:03:34;;;;;;;13.33;4.73;;;1.10;99.90;;;;;;6214113;23;20007;-76
2024/02/14 00:06:00;;;;;;;7.83;4.30;;;1.10;99.90;;;;;;6213962;23;20380;-76
2024/02/14 00:08:25;;;;;;;9.43;3.87;;;1.00;99.90;;;;;;6213463;23;20009;-76
2024/02/14 00:10:51;;;;;;;12.93;3.80;;;1.10;99.90;;;;;;6213911;23;19997;-76
2024/02/14 00:13:18;;;;;;;9.30;3.73;;;1.00;99.90;;;;;;6213956;23;19996;-75
2024/02/14 00:15:43;;;;;;;7.93;3.40;;;1.10;99.90;;;;;;6213441;23;20012;-75
2024/02/14 00:18:09;;;;;;;8.50;3.80;;;1.10;99.90;;;;;;6214310;23;20059;-75
2024/02/14 00:20:35;;;;;;;6.23;3.77;;;1.10;99.90;;;;;;6214106;23;20004;-75
2024/02/14 00:23:01;;;;;;;7.43;3.43;;;1.10;99.90;;;;;;6214298;23;20307;-76
2024/02/14 00:25:27;;;;;;;5.87;3.00;;;1.10;99.90;;;;;;6213566;23;20001;-76
2024/02/14 00:27:54;;;;;;;5.73;3.20;;;1.10;99.90;;;;;;6213258;23;20016;-75
2024/02/14 00:30:20;;;;;;;6.33;3.13;;;1.20;99.90;;;;;;6214221;23;20000;-76
2024/02/14 00:32:46;;;;;;;10.20;2.67;;;1.20;99.90;;;;;;6213892;23;20005;-75
2024/02/14 00:35:12;;;;;;;8.60;3.70;;;1.30;99.90;;;;;;6213212;23;20015;-76
2024/02/14 00:37:37;;;;;;;4.50;2.80;;;1.30;99.90;;;;;;6213893;23;20001;-75
2024/02/14 00:40:03;;;;;;;5.53;3.00;;;1.30;99.90;;;;;;6213901;23;20050;-76
2024/02/14 00:42:28;;;;;;;6.97;2.83;;;1.40;99.90;;;;;;6213253;23;20020;-76
2024/02/14 00:44:54;;;;;;;7.03;3.00;;;1.40;99.90;;;;;;6213367;23;20013;-76
2024/02/14 00:47:19;;;;;;;9.27;2.93;;;1.50;99.90;;;;;;6213836;23;20028;-75
2024/02/14 00:49:45;;;;;;;7.30;2.80;;;1.60;99.90;;;;;;6213507;23;20453;-75
2024/02/14 00:52:10;;;;;;;6.43;2.90;;;1.60;99.90;;;;;;6213638;23;20036;-75
2024/02/14 00:54:36;;;;;;;5.77;2.40;;;1.70;99.90;;;;;;6213206;23;20005;-76
2024/02/14 00:57:02;;;;;;;5.20;2.40;;;1.70;99.90;;;;;;6213380;23;19996;-75
2024/02/14 00:59:27;;;;;;;5.10;2.90;;;1.80;99.90;;;;;;6213752;23;20059;-75
2024/02/14 01:01:53;;;;;;;7.50;2.73;;;1.80;99.90;;;;;;6213595;23;20113;-75
2024/02/14 01:04:18;;;;;;;4.80;2.60;;;1.90;99.90;;;;;;6212981;23;20414;-76
2024/02/14 01:06:44;;;;;;;4.83;2.50;;;1.90;99.90;;;;;;6213592;23;20000;-75
2024/02/14 01:09:09;;;;;;;5.10;2.70;;;2.00;99.90;;;;;;6213839;23;20363;-75
2024/02/14 01:11:38;;;;;;;5.30;2.53;;;2.00;99.90;;;;;;6213329;23;20016;-76
2024/02/14 01:14:04;;;;;;;6.73;2.63;;;2.00;99.90;;;;;;6213224;23;20004;-76
2024/02/14 01:16:29;;;;;;;5.80;2.40;;;2.10;99.90;;;;;;6213287;23;20016;-75
2024/02/14 01:18:55;;;;;;;6.53;2.50;;;2.10;99.90;;;;;;6213232;23;20070;-76
2024/02/14 01:21:20;;;;;;;6.57;2.87;;;2.10;99.90;;;;;;6213538;23;19996;-75
2024/02/14 01:23:46;;;;;;;4.87;2.80;;;2.20;99.90;;;;;;6212847;23;20008;-75
2024/02/14 01:26:11;;;;;;;6.60;2.90;;;2.20;99.90;;;;;;6213647;23;20008;-76
2024/02/14 01:28:37;;;;;;;3.90;2.40;;;2.20;99.90;;;;;;6213172;23;20000;-76
2024/02/14 01:31:03;;;;;;;6.30;2.30;;;2.20;99.90;;;;;;6213532;23;20004;-75
2024/02/14 01:33:30;;;;;;;5.83;2.50;;;2.30;99.90;;;;;;6213368;23;20000;-75
2024/02/14 01:35:57;;;;;;;4.50;2.20;;;2.30;99.90;;;;;;6213599;23;20350;-76
2024/02/14 01:38:23;;;;;;;5.83;2.27;;;2.30;99.90;;;;;;6215485;23;20001;-75
2024/02/14 01:40:48;;;;;;;3.53;2.20;;;2.40;99.90;;;;;;6215495;23;20305;-75
2024/02/14 01:43:14;;;;;;;4.57;2.70;;;2.30;99.90;;;;;;6215381;23;20008;-76
2024/02/14 01:45:40;;;;;;;5.77;2.20;;;2.40;99.90;;;;;;6214973;23;20008;-76
2024/02/14 01:48:07;;;;;;;6.93;2.30;;;2.40;99.90;;;;;;6215519;23;20328;-76
2024/02/14 01:50:34;;;;;;;4.20;2.00;;;2.40;99.90;;;;;;6215298;23;20005;-76
2024/02/14 01:53:01;;;;;;;6.73;2.07;;;2.40;99.90;;;;;;6215313;23;20007;-76
2024/02/14 01:55:28;;;;;;;4.90;2.23;;;2.40;99.90;;;;;;6214732;23;20316;-75
2024/02/14 01:57:54;;;;;;;3.63;2.10;;;2.50;99.90;;;;;;6215349;23;20008;-75
2024/02/14 02:00:20;;;;;;;5.93;2.10;;;2.50;99.90;;;;;;6215711;23;20004;-75
2024/02/14 02:02:46;;;;;;;5.67;2.40;;;2.50;99.90;;;;;;6215005;23;20685;-75
2024/02/14 02:05:13;;;;;;;3.80;2.10;;;2.50;99.90;;;;;;6214758;23;20063;-76
2024/02/14 02:07:42;;;;;;;4.20;2.03;;;2.60;99.90;;;;;;6214840;23;20001;-75
2024/02/14 02:10:09;;;;;;;4.03;2.23;;;2.60;99.90;;;;;;6215600;23;20007;-75
2024/02/14 02:12:38;;;;;;;7.20;2.63;;;2.60;99.90;;;;;;6214769;23;19997;-75
2024/02/14 02:15:05;;;;;;;6.13;2.33;;;2.60;99.90;;;;;;6214744;23;20079;-75
2024/02/14 02:17:30;;;;;;;5.83;2.00;;;2.60;99.90;;;;;;6214591;23;20008;-75
2024/02/14 02:19:57;;;;;;;5.73;2.00;;;2.70;99.90;;;;;;6215629;23;20339;-75
2024/02/14 02:22:23;;;;;;;4.53;2.00;;;2.70;99.90;;;;;;6215094;23;19997;-75
2024/02/14 02:24:50;;;;;;;5.47;2.47;;;2.70;99.90;;;;;;6214404;23;20063;-75
2024/02/14 02:27:16;;;;;;;4.40;2.20;;;2.70;99.90;;;;;;6215025;23;20016;-76
2024/02/14 02:29:42;;;;;;;4.27;1.87;;;2.70;99.90;;;;;;6215194;23;20000;-76
2024/02/14 02:32:09;;;;;;;3.80;1.80;;;2.70;99.90;;;;;;6214618;23;20001;-76
2024/02/14 02:34:38;;;;;;;3.13;1.67;;;2.70;99.90;;;;;;6214708;23;20019;-75
2024/02/14 02:37:07;;;;;;;6.10;2.10;;;2.70;99.90;;;;;;6214527;23;20375;-76
2024/02/14 02:39:33;;;;;;;5.20;2.40;;;2.70;99.90;;;;;;6214911;23;20493;-74
2024/02/14 02:41:59;;;;;;;3.27;1.63;;;2.70;99.90;;;;;;6214548;23;20316;-76
2024/02/14 02:44:25;;;;;;;5.23;2.17;;;2.70;99.90;;;;;;6214470;23;20001;-75
2024/02/14 02:46:51;;;;;;;5.07;2.33;;;2.70;99.90;;;;;;6214628;23;20005;-76
2024/02/14 02:49:16;;;;;;;4.03;1.80;;;2.70;99.90;;;;;;6214741;23;20331;-75
2024/02/14 02:51:42;;;;;;;2.90;1.63;;;2.70;99.90;;;;;;6215264;23;20004;-76
2024/02/14 02:54:08;;;;;;;4.47;2.10;;;2.70;99.90;;;;;;6213841;23;20012;-75
2024/02/14 02:56:34;;;;;;;3.60;1.80;;;2.70;99.90;;;;;;6214842;23;20027;-76
2024/02/14 02:58:59;;;;;;;4.00;2.00;;;2.70;99.90;;;;;;6214625;23;20435;-75
2024/02/14 03:01:28;;;;;;;3.93;2.07;;;2.70;99.90;;;;;;6215234;23;20020;-75
2024/02/14 03:03:53;;;;;;;4.40;2.10;;;2.70;99.90;;;;;;6213721;23;20372;-76
2024/02/14 03:06:20;;;;;;;2.97;1.80;;;2.70;99.90;;;;;;6214685;23;20008;-75
2024/02/14 03:08:45;;;;;;;3.83;1.93;;;2.70;99.90;;;;;;6214674;23;20011;-75
2024/02/14 03:11:11;;;;;;;5.40;1.90;;;2.70;99.90;;;;;;6215188;23;20005;-75
2024/02/14 03:13:40;;;;;;;4.73;2.00;;;2.70;99.90;;;;;;6213744;23;20064;-75
2024/02/14 03:16:06;;;;;;;5.13;2.00;;;2.70;99.90;;;;;;6214096;23;20020;-76
2024/02/14 03:18:32;;;;;;;5.10;2.03;;;2.70;99.90;;;;;;6214532;23;20051;-76
2024/02/14 03:20:58;;;;;;;3.43;1.90;;;2.70;99.90;;;;;;6214755;23;20000;-76
2024/02/14 03:23:24;;;;;;;4.43;1.80;;;2.80;99.90;;;;;;6214146;23;20008;-75
2024/02/14 03:25:51;;;;;;;4.03;2.07;;;2.80;99.90;;;;;;6214252;23;20009;-75
2024/02/14 03:28:17;;;;;;;5.10;2.10;;;2.80;99.90;;;;;;6214489;23;20021;-76
2024/02/14 03:30:42;;;;;;;4.97;2.10;;;2.80;99.90;;;;;;6214646;23;20305;-76
2024/02/14 03:33:09;;;;;;;5.40;2.27;;;2.70;99.90;;;;;;6214035;23;20008;-75
2024/02/14 03:35:34;;;;;;;4.33;2.93;;;2.70;99.90;;;;;;6213927;23;20012;-76
2024/02/14 03:38:01;;;;;;;4.10;1.90;;;2.70;99.90;;;;;;6214883;23;20004;-75
2024/02/14 03:40:27;;;;;;;5.17;2.00;;;2.70;99.90;;;;;;6214258;23;20000;-76
2024/02/14 03:42:53;;;;;;;10.83;2.43;;;2.70;99.90;;;;;;6214160;23;20003;-76
2024/02/14 03:45:19;;;;;;;6.27;2.10;;;2.70;99.90;;;;;;6213907;23;20008;-76
2024/02/14 03:47:44;;;;;;;3.37;2.00;;;2.60;99.90;;;;;;6213830;23;20335;-76
2024/02/14 03:50:10;;;;;;;5.37;1.67;;;2.60;99.90;;;;;;6214523;23;20001;-75
2024/02/14 03:52:36;;;;;;;6.27;2.97;;;2.60;99.90;;;;;;6214176;23;20007;-75
2024/02/14 03:55:02;;;;;;;5.17;1.97;;;2.50;99.90;;;;;;6214005;23;20016;-76
2024/02/14 03:57:28;;;;;;;8.53;1.93;;;2.50;99.90;;;;;;6214421;23;19996;-75
2024/02/14 04:00:03;;;;;;;4.97;1.93;;;2.40;99.90;;;;;;6214277;23;20011;-75
2024/02/14 04:02:29;;;;;;;5.25;2.20;;;2.40;99.90;;;;;;6214121;23;20063;-76
2024/02/14 04:04:55;;;;;;;6.63;2.20;;;2.30;99.90;;;;;;6213457;23;20371;-76
2024/02/14 04:07:22;;;;;;;8.60;2.37;;;2.30;99.90;;;;;;6214111;23;20079;-76
2024/02/14 04:09:47;;;;;;;6.93;2.23;;;2.20;99.90;;;;;;6214076;23;20447;-76
2024/02/14 04:12:13;;;;;;;3.40;2.03;;;2.20;99.90;;;;;;6213803;23;20008;-76
2024/02/14 04:14:39;;;;;;;3.40;1.90;;;2.10;99.90;;;;;;6213664;23;20079;-76
2024/02/14 04:17:07;;;;;;;6.23;1.80;;;2.10;99.90;;;;;;6213385;23;20485;-75
2024/02/14 04:19:33;;;;;;;4.47;1.80;;;2.10;99.90;;;;;;6214546;23;20128;-75
2024/02/14 04:21:58;;;;;;;6.73;2.00;;;2.10;99.90;;;;;;6213857;23;20442;-76
2024/02/14 04:24:24;;;;;;;3.30;1.63;;;2.10;99.90;;;;;;6213346;23;20005;-75
2024/02/14 04:26:49;;;;;;;7.93;1.83;;;2.10;99.90;;;;;;6214313;23;20004;-76
2024/02/14 04:29:15;;;;;;;7.77;1.90;;;2.10;99.90;;;;;;6213631;23;20407;-76
2024/02/14 04:31:42;;;;;;;6.63;1.50;;;2.10;99.90;;;;;;6214162;23;20155;-75
2024/02/14 04:34:09;;;;;;;2.97;1.57;;;2.20;99.90;;;;;;6212949;23;20564;-75
2024/02/14 04:36:35;;;;;;;2.77;1.60;;;2.20;99.90;;;;;;6213793;23;20008;-75
2024/02/14 04:39:01;;;;;;;4.70;1.70;;;2.20;99.90;;;;;;6213832;23;20005;-75
2024/02/14 04:41:26;;;;;;;6.40;1.80;;;2.30;99.90;;;;;;6213826;23;20009;-75
2024/02/14 04:43:52;;;;;;;3.37;1.70;;;2.30;99.90;;;;;;6213221;23;20019;-76
2024/02/14 04:46:18;;;;;;;5.30;2.00;;;2.40;99.90;;;;;;6213872;23;20014;-76
2024/02/14 04:48:43;;;;;;;4.60;1.83;;;2.40;99.90;;;;;;6186842;23;20003;-76
2024/02/14 04:51:09;;;;;;;3.57;1.43;;;2.40;99.90;;;;;;6214150;23;20000;-76
2024/02/14 04:53:35;;;;;;;3.67;1.40;;;2.50;99.90;;;;;;6213421;23;20046;-76
2024/02/14 04:56:01;;;;;;;3.67;1.73;;;2.50;99.90;;;;;;6213590;23;20426;-75
2024/02/14 04:58:26;;;;;;;5.77;1.93;;;2.60;99.90;;;;;;6213770;23;20028;-75
2024/02/14 05:00:52;;;;;;;4.43;1.83;;;2.60;99.90;;;;;;6213688;23;20466;-76
2024/02/14 05:03:18;;;;;;;4.90;2.23;;;2.60;99.90;;;;;;6214057;23;20005;-76
2024/02/14 05:05:44;;;;;;;5.63;1.70;;;2.60;99.90;;;;;;6212541;23;20027;-76
2024/02/14 05:08:09;;;;;;;8.73;2.10;;;2.60;99.90;;;;;;6213751;23;20035;-75
2024/02/14 05:10:35;;;;;;;7.33;2.63;;;2.60;99.90;;;;;;6213861;23;20008;-75
2024/02/14 05:13:01;;;;;;;4.93;1.87;;;2.60;99.90;;;;;;6214104;23;20335;-76
2024/02/14 05:15:26;;;;;;;5.63;1.90;;;2.60;99.90;;;;;;6213536;23;20009;-76
2024/02/14 05:17:52;;;;;;;5.33;2.00;;;2.60;99.90;;;;;;6213892;23;20012;-76
2024/02/14 05:20:18;;;;;;;6.30;3.47;;;2.60;99.90;;;;;;6214213;23;20419;-76
2024/02/14 05:22:43;;;;;;;4.37;2.17;;;2.60;99.90;;;;;;6213686;23;20001;-76
2024/02/14 05:25:09;;;;;;;4.70;1.93;;;2.60;99.90;;;;;;6212829;23;20078;-76
2024/02/14 05:27:36;;;;;;;1.87;1.37;;;2.60;99.90;;;;;;6213279;23;19996;-76
2024/02/14 05:30:05;;;;;;;3.70;2.07;;;2.60;99.90;;;;;;6213460;23;19997;-76
2024/02/14 05:32:34;;;;;;;4.90;1.97;;;2.60;99.90;;;;;;6213422;23;20078;-76
2024/02/14 05:34:59;;;;;;;5.57;1.83;;;2.60;99.90;;;;;;6212668;23;20035;-76
2024/02/14 05:37:28;;;;;;;9.53;1.83;;;2.60;99.90;;;;;;6213340;23;20427;-76
2024/02/14 05:39:54;;;;;;;6.37;1.70;;;2.60;99.90;;;;;;6213590;23;20000;-76
2024/02/14 05:42:21;;;;;;;5.80;1.90;;;2.60;99.90;;;;;;6212681;23;20001;-76
2024/02/14 05:44:47;;;;;;;5.73;1.70;;;2.60;99.90;;;;;;6212375;23;20090;-70
2024/02/14 05:47:12;;;;;;;8.47;3.03;;;2.60;99.90;;;;;;6209003;23;20463;-71
2024/02/14 05:49:39;;;;;;;6.43;2.30;;;2.70;99.90;;;;;;6212921;23;20012;-70
2024/02/14 05:52:06;;;;;;;6.50;2.10;;;2.70;99.90;;;;;;6213012;23;20118;-76
2024/02/14 05:54:31;;;;;;;6.90;2.47;;;2.70;99.90;;;;;;6211724;23;20439;-76
2024/02/14 05:56:57;;;;;;;5.53;1.83;;;2.70;99.90;;;;;;6212460;23;20047;-76
2024/02/14 05:59:23;;;;;;;7.87;2.00;;;2.70;99.90;;;;;;6212812;23;20391;-75
2024/02/14 06:01:48;;;;;;;8.30;2.10;;;2.70;99.90;;;;;;6212471;23;20001;-75
2024/02/14 06:04:14;;;;;;;6.20;2.33;;;2.70;99.90;;;;;;6211684;23;20379;-76
2024/02/14 06:06:39;;;;;;;3.67;1.67;;;2.70;99.90;;;;;;6212774;23;20008;-76
2024/02/14 06:09:09;;;;;;;5.83;1.80;;;2.70;99.90;;;;;;6212774;23;20012;-76
2024/02/14 06:11:38;;;;;;;6.07;1.83;;;2.70;99.90;;;;;;6212789;23;20000;-76
2024/02/14 06:14:07;;;;;;;10.97;2.87;;;2.70;99.90;;;;;;6211711;23;20139;-76
2024/02/14 06:16:33;;;;;;;7.90;2.20;;;2.80;99.90;;;;;;6212210;23;20020;-76
2024/02/14 06:18:59;;;;;;;4.33;2.40;;;2.80;99.90;;;;;;6212996;23;20028;-75
2024/02/14 06:21:25;;;;;;;9.07;2.53;;;2.80;99.90;;;;;;6212552;23;20009;-76
2024/02/14 06:23:51;;;;;;;11.93;2.70;;;2.80;99.90;;;;;;6213270;23;20307;-76
2024/02/14 06:26:17;;;;;;;4.90;2.70;;;2.80;99.90;;;;;;6208364;23;20001;-76
2024/02/14 06:28:44;;;;;;;10.10;2.30;;;2.90;99.90;;;;;;6214169;23;19996;-75
2024/02/14 06:31:09;;;;;;;5.37;2.30;;;2.90;99.90;;;;;;6213923;23;20469;-76
2024/02/14 06:33:35;;;;;;;6.73;2.20;;;2.90;99.90;;;;;;6214270;23;20083;-75
2024/02/14 06:36:01;;;;;;;9.87;2.60;;;2.90;99.90;;;;;;6212249;23;20012;-77
2024/02/14 06:38:27;;;;;;;4.47;2.20;;;2.90;99.90;;;;;;6214389;23;20016;-77
2024/02/14 06:40:52;;;;;;;7.90;2.57;;;2.90;99.90;;;;;;6213960;23;20463;-79
2024/02/14 06:43:18;;;;;;;4.60;2.50;;;2.90;99.90;;;;;;6214210;23;20422;-76
2024/02/14 06:45:43;;;;;;;6.53;2.63;;;3.00;99.90;;;;;;6212919;23;20016;-77
2024/02/14 06:48:09;;;;;;;4.30;2.30;;;3.10;99.90;;;;;;6214463;23;20009;-76
2024/02/14 06:50:34;;;;;;;4.07;2.00;;;3.20;99.90;;;;;;6213950;23;20001;-77
2024/02/14 06:53:00;;;;;;;6.87;1.87;;;3.40;99.90;;;;;;6213473;23;19997;-77
2024/02/14 06:55:31;;;;;;;5.83;2.10;;;3.50;99.90;;;;;;6212568;23;20013;-76
2024/02/14 06:57:57;;;;;;;5.47;2.17;;;3.60;99.90;;;;;;6212233;23;20075;-76
2024/02/14 07:00:23;;;;;;;4.67;2.30;;;3.70;99.90;;;;;;6213633;23;20089;-76
2024/02/14 07:02:48;;;;;;;6.70;2.10;;;3.70;99.90;;;;;;6213414;23;20438;-76
2024/02/14 07:05:14;;;;;;;13.63;2.90;;;3.80;99.90;;;;;;6213529;23;20008;-75
2024/02/14 07:07:40;;;;;;;10.83;2.80;;;3.90;99.90;;;;;;6213306;23;20047;-77
2024/02/14 07:10:07;;;;;;;5.83;2.00;;;4.00;99.90;;;;;;6213517;23;20009;-77
2024/02/14 07:12:32;;;;;;;8.97;2.20;;;4.10;99.90;;;;;;6213677;23;20013;-77
2024/02/14 07:14:58;;;;;;;6.33;2.70;;;4.10;99.90;;;;;;6213192;23;20020;-76
2024/02/14 07:17:23;;;;;;;5.03;1.90;;;4.20;99.90;;;;;;6212948;23;20008;-76
2024/02/14 07:19:49;;;;;;;9.87;1.90;;;4.30;99.90;;;;;;6216365;23;20005;-83
2024/02/14 07:22:17;;;;;;;14.03;2.93;;;4.30;99.90;;;;;;6218339;23;20000;-81
2024/02/14 07:24:45;;;;;;;5.33;1.90;;;4.30;99.90;;;;;;6217085;23;20390;-83
2024/02/14 07:27:14;;;;;;;4.97;2.10;;;4.40;99.90;;;;;;6217415;23;20008;-81
2024/02/14 07:29:40;;;;;;;9.97;2.60;;;4.50;99.90;;;;;;6215460;23;20009;-80
2024/02/14 07:32:08;;;;;;;7.07;2.27;;;4.50;99.90;;;;;;6216171;23;20546;-80
2024/02/14 07:34:34;;;;;;;12.10;2.77;;;4.50;99.90;;;;;;6213246;23;20011;-79
2024/02/14 07:37:00;;;;;;;4.27;2.30;;;4.60;99.90;;;;;;6215722;23;19997;-79
2024/02/14 07:39:25;;;;;;;8.67;2.20;;;4.60;99.90;;;;;;6216849;23;20016;-79
2024/02/14 07:41:51;;;;;;;6.17;2.23;;;4.70;99.90;;;;;;6215413;23;20083;-79
2024/02/14 07:44:17;;;;;;;4.80;2.10;;;4.70;99.90;;;;;;6216971;23;20000;-79
2024/02/14 07:46:43;;;;;;;8.53;2.40;;;4.80;99.90;;;;;;6216766;23;20454;-78
2024/02/14 07:49:09;;;;;;;4.17;2.23;;;4.80;99.90;;;;;;6217731;23;20078;-79
2024/02/14 07:51:37;;;;;;;4.57;1.90;;;4.80;99.90;;;;;;6215737;23;20050;-79
2024/02/14 07:54:04;;;;;;;9.10;2.03;;;4.90;99.90;;;;;;6216223;23;20001;-79
2024/02/14 07:56:30;;;;;;;6.07;2.73;;;4.90;99.90;;;;;;6215757;23;20316;-79
2024/02/14 07:58:55;;;;;;;14.33;2.43;;;5.00;99.90;;;;;;6217392;23;20083;-80
2024/02/14 08:01:21;;;;;;;7.17;2.10;;;5.00;99.90;;;;;;6217576;23;20011;-79
2024/02/14 08:03:46;;;;;;;7.10;2.07;;;5.10;99.90;;;;;;6214578;23;20020;-79
2024/02/14 08:06:12;;;;;;;7.43;2.63;;;5.20;99.90;;;;;;6217447;23;20034;-79
2024/02/14 08:08:38;;;;;;;6.43;2.30;;;5.20;99.90;;;;;;6218869;23;20005;-79
2024/02/14 08:11:04;;;;;;;8.17;2.60;;;5.30;99.90;;;;;;6214168;23;20076;-79
2024/02/14 08:13:29;;;;;;;14.60;3.80;;;5.30;99.90;;;;;;6216652;23;20546;-78
2024/02/14 08:15:55;;;;;;;6.97;2.10;;;5.40;99.90;;;;;;6217040;23;20343;-79
2024/02/14 08:18:21;;;;;;;4.13;1.97;;;5.40;99.90;;;;;;6218334;23;20050;-79
2024/02/14 08:20:46;;;;;;;3.67;2.00;;;5.50;99.90;;;;;;6218184;23;20015;-79
2024/02/14 08:23:12;;;;;;;8.23;2.30;;;5.60;99.90;;;;;;6217906;23;20092;-80
2024/02/14 08:25:37;;;;;;;9.13;2.70;;;5.60;99.90;;;;;;6215926;23;20005;-80
2024/02/14 08:28:07;;;;;;;7.80;2.57;;;5.70;99.90;;;;;;6216744;23;20412;-79
2024/02/14 08:30:33;;;;;;;9.87;2.27;;;5.70;99.90;;;;;;6216520;23;20027;-79
2024/02/14 08:32:58;;;;;;;8.50;2.33;;;5.80;99.90;;;;;;6215775;23;20009;-78
2024/02/14 08:35:24;;;;;;;6.33;2.40;;;5.90;99.90;;;;;;6214898;23;20065;-78
2024/02/14 08:37:49;;;;;;;6.17;2.10;;;6.00;99.90;;;;;;6216401;23;20003;-79
2024/02/14 08:40:15;;;;;;;7.07;1.90;;;6.20;99.90;;;;;;6216880;23;20008;-80
2024/02/14 08:42:40;;;;;;;5.03;1.80;;;6.30;99.90;;;;;;6214584;23;20008;-80
2024/02/14 08:45:07;;;;;;;3.70;1.90;;;6.40;99.90;;;;;;6216170;23;20031;-80
2024/02/14 08:47:32;;;;;;;5.03;2.00;;;6.60;99.90;;;;;;6189870;23;20065;-80
2024/02/14 08:49:58;;;;;;;4.27;2.00;;;6.80;99.90;;;;;;6217496;23;19997;-80
2024/02/14 08:52:23;;;;;;;4.20;1.60;;;7.00;99.90;;;;;;6216627;23;20004;-80
2024/02/14 08:54:49;;;;;;;4.77;1.73;;;7.20;99.90;;;;;;6216384;23;20379;-79
2024/02/14 08:57:14;;;;;;;3.10;1.47;;;7.40;99.90;;;;;;6191658;23;20001;-79
2024/02/14 08:59:43;;;;;;;5.33;1.97;;;7.60;99.90;;;;;;6218131;23;20000;-79
2024/02/14 09:02:08;;;;;;;5.63;1.97;;;7.70;99.90;;;;;;6216549;23;20004;-80
2024/02/14 09:04:34;;;;;;;6.40;2.73;;;7.90;99.90;;;;;;6212612;23;20005;-81
2024/02/14 09:07:00;;;;;;;3.17;1.50;;;8.20;99.90;;;;;;6214910;23;20396;-78
2024/02/14 09:09:26;;;;;;;6.57;1.80;;;8.50;99.90;;;;;;6214590;23;19997;-80
2024/02/14 09:11:53;;;;;;;5.03;2.00;;;8.60;99.90;;;;;;6213832;23;20497;-80
2024/02/14 09:14:18;;;;;;;5.47;2.00;;;8.80;99.90;;;;;;6187476;23;20009;-79
2024/02/14 09:16:45;;;;;;;7.17;1.97;;;8.90;99.90;;;;;;6214514;23;20020;-80
2024/02/14 09:19:12;;;;;;;3.03;1.60;;;9.00;99.90;;;;;;6215874;23;20012;-79
2024/02/14 09:21:38;;;;;;;6.93;1.60;;;9.10;99.90;;;;;;6214390;23;20005;-79
2024/02/14 09:24:04;;;;;;;3.53;1.43;;;9.20;99.90;;;;;;6216459;23;20051;-80
2024/02/14 09:26:30;;;;;;;2.70;1.20;;;9.20;99.90;;;;;;6214933;23;20439;-79
2024/02/14 09:28:55;;;;;;;5.10;1.70;;;9.30;99.90;;;;;;6215451;23;20012;-79
2024/02/14 09:31:22;;;;;;;6.53;1.50;;;9.30;99.90;;;;;;6215173;23;20088;-80
2024/02/14 09:33:48;;;;;;;3.17;1.30;;;9.30;99.90;;;;;;6215807;23;20072;-80
2024/02/14 09:36:14;;;;;;;2.43;1.40;;;9.30;99.90;;;;;;6214792;23;20012;-79
2024/02/14 09:38:44;;;;;;;2.80;1.40;;;9.30;99.90;;;;;;6215989;23;20031;-80
2024/02/14 09:41:10;;;;;;;4.83;1.30;;;9.30;99.90;;;;;;6216087;23;20386;-80
2024/02/14 09:43:40;;;;;;;2.67;1.20;;;9.30;99.90;;;;;;6215157;23;20035;-80
2024/02/14 09:46:07;;;;;;;5.33;1.30;;;9.30;99.90;;;;;;6212551;23;20339;-80
2024/02/14 09:48:33;;;;;;;1.95;1.20;;;9.40;99.90;;;;;;6213114;23;20005;-79
2024/02/14 09:50:59;;;;;;;3.17;1.50;;;9.50;99.90;;;;;;6213521;23;20035;-80
2024/02/14 09:53:28;;;;;;;4.27;1.40;;;9.50;99.90;;;;;;6213730;23;20001;-80
2024/02/14 09:55:55;;;;;;;3.30;1.40;;;9.60;99.90;;;;;;6212576;23;20001;-80
2024/02/14 09:58:21;;;;;;;3.77;1.20;;;9.70;99.90;;;;;;6214572;23;20324;-79
2024/02/14 10:00:46;;;;;;;2.13;1.10;;;9.70;99.90;;;;;;6214068;23;20004;-80
2024/02/14 10:03:12;;;;;;;3.25;1.20;;;9.80;99.90;;;;;;6214417;23;20004;-80
2024/02/14 10:05:38;;;;;;;3.50;1.20;;;9.80;99.90;;;;;;6214719;23;20376;-80
2024/02/14 10:08:04;;;;;;;10.65;1.50;;;9.90;99.90;;;;;;6214610;23;19908;-80
2024/02/14 10:10:35;;;;;;;2.85;1.10;;;10.00;99.90;;;;;;6215953;23;20037;-80
2024/02/14 10:13:03;;;;;;;4.20;1.20;;;10.00;99.90;;;;;;6188891;23;20025;-81
2024/02/14 10:15:29;;;;;;;;;;;10.20;99.90;;;;;;6213161;23;20470;-78
2024/02/14 10:17:55;;;;;;;;;;;10.30;99.90;;;;;;6216874;23;20071;-78
2024/02/14 10:20:21;;;;;;;;;;;10.40;99.90;;;;;;6218622;23;20019;-79
2024/02/14 10:22:47;;;;;;;4.30;1.20;;;10.50;99.90;;;;;;6217112;23;20026;-79
2024/02/14 10:25:14;;;;;;;;;;;10.60;99.90;;;;;;6215634;23;20016;-80
2024/02/14 10:27:40;;;;;;;;;;;10.70;99.90;;;;;;6216412;23;20008;-80
2024/02/14 10:30:09;;;;;;;;;;;10.60;99.90;;;;;;6218138;23;20035;-81
2024/02/14 10:32:36;;;;;;;;;;;10.50;99.90;;;;;;6216525;23;20066;-79
2024/02/14 10:35:03;;;;;;;;;;;10.50;99.90;;;;;;6216677;23;20038;-80
2024/02/14 10:37:30;;;;;;;;;;;10.50;99.90;;;;;;6217244;23;20016;-80
2024/02/14 10:39:56;;;;;;;;;;;10.60;99.90;;;;;;6219344;23;20124;-81
2024/02/14 10:42:21;;;;;;;;;;;10.80;99.90;;;;;;6217063;23;20047;-79
2024/02/14 10:44:49;;;;;;;;;;;11.00;99.90;;;;;;6217100;23;20095;-79
2024/02/14 10:47:19;;;;;;;;;;;11.10;99.90;;;;;;6216454;23;19926;-80
2024/02/14 10:49:45;;;;;;;;;;;11.30;99.90;;;;;;6216674;23;20367;-80
2024/02/14 10:52:11;;;;;;;;;;;11.40;99.90;;;;;;6210879;23;19982;-80
2024/02/14 10:54:37;;;;;;;;;;;11.60;99.90;;;;;;6212510;23;19946;-80
2024/02/14 10:57:11;;;;;;;;;;;11.70;99.90;;;;;;6216818;23;19935;-79
2024/02/14 10:59:38;;;;;;;;;;;11.80;99.90;;;;;;6184134;23;20002;-79
2024/02/14 11:02:04;;;;;;;;;;;12.00;99.90;;;;;;6184355;23;20021;-80
2024/02/14 11:04:29;;;;;;;;;;;12.10;99.90;;;;;;6184575;23;19915;-79
2024/02/14 11:06:56;;;;;;;;;;;12.30;99.90;;;;;;6182911;23;24084;-79
2024/02/14 11:09:30;;;;;;;;;;;12.40;99.90;;;;;;6185554;23;20370;-79
2024/02/14 11:12:00;;;;;;;;;;;12.50;99.90;;;;;;6185856;23;24087;-80
2024/02/14 11:14:29;;;;;;;;;;;12.60;99.90;;;;;;6183005;23;19986;-77
2024/02/14 11:16:54;;;;;;;;;;;12.60;99.90;;;;;;6182930;23;19911;-78
2024/02/14 11:19:30;;;;;;;;;;;12.60;99.90;;;;;;6185113;23;24060;-78
2024/02/14 11:21:55;;;;;;;;;;;12.70;99.90;;;;;;6185219;23;20105;-80
2024/02/14 11:24:26;;;;;;;;;;;12.80;99.90;;;;;;6184586;23;19900;-80
2024/02/14 11:26:52;;;;;;;;;;;12.70;99.90;;;;;;6184622;23;24034;-80
2024/02/14 11:29:18;;;;;;;;;;;12.70;99.90;;;;;;6186549;23;20291;-80
2024/02/14 11:31:44;;;;;;;;;;;12.70;99.90;;;;;;6184266;23;19903;-79
2024/02/14 11:34:13;;;;;;;;;;;12.80;99.90;;;;;;6186354;23;19904;-80
2024/02/14 11:36:41;;;;;;;;;;;12.90;99.90;;;;;;6186482;23;19904;-79
2024/02/14 11:39:06;;;;;;;;;;;12.90;99.90;;;;;;6184128;23;19931;-83
2024/02/14 11:41:33;;;;;;;;;;;12.90;99.90;;;;;;6185446;23;19900;-79
2024/02/14 11:44:02;;;;;;;;;;;12.90;99.90;;;;;;6187019;23;19903;-80
2024/02/14 11:46:29;;;;;;;;;;;13.00;99.90;;;;;;6186305;23;19907;-79
2024/02/14 11:48:55;;;;;;;;;;;13.00;99.90;;;;;;6185470;23;19904;-80
2024/02/14 11:51:20;;;;;;;;;;;13.00;99.90;;;;;;6183641;23;19982;-80
2024/02/14 11:53:46;;;;;;;;;;;13.10;99.90;;;;;;6186733;23;19899;-79
2024/02/14 11:56:12;;;;;;;;;;;13.20;99.90;;;;;;6186993;23;20258;-81
2024/02/14 11:58:37;;;;;;;;;;;13.30;99.90;;;;;;6185768;23;20720;-79
2024/02/14 12:01:05;;;;;;;;;;;13.30;99.90;;;;;;6198530;23;19899;-80
2024/02/14 12:03:30;;;;;;;;;;;13.40;99.90;;;;;;6220499;23;19899;-80
2024/02/14 12:05:57;;;;;;;;;;;13.40;99.90;;;;;;6218155;23;19911;-81
2024/02/14 12:08:22;;;;;;;;;;;13.30;99.90;;;;;;6219387;23;19919;-80
2024/02/14 12:10:49;;;;;;;;;;;13.30;99.90;;;;;;6217806;23;19900;-81
2024/02/14 12:13:16;;;;;;;;;;;13.30;99.90;;;;;;6218150;23;19899;-81
2024/02/14 12:15:44;;;;;;;;;;;13.30;99.90;;;;;;6217741;23;19915;-81
2024/02/14 12:18:10;;;;;;;;;;;13.40;99.90;;;;;;6219195;23;19904;-81
2024/02/14 12:20:36;;;;;;;;;;;13.50;99.90;;;;;;6217686;23;19903;-80
2024/02/14 12:23:02;;;;;;;;;;;13.40;99.90;;;;;;6218976;23;19904;-81
2024/02/14 12:25:29;;;;;;;;;;;13.50;99.90;;;;;;6217744;23;24048;-81
2024/02/14 12:27:56;;;;;;;;;;;13.50;99.90;;;;;;6217809;23;19955;-80
2024/02/14 12:30:22;;;;;;;;;;;13.40;99.90;;;;;;6217575;23;19900;-81
2024/02/14 12:33:01;;;;;;;;;;;13.40;99.90;;;;;;6218052;23;20381;-80
2024/02/14 12:35:26;;;;;;;;;;;13.50;99.90;;;;;;6218444;23;19969;-80
2024/02/14 12:37:53;;;;;;;;;;;13.80;99.90;;;;;;6219081;23;20311;-80
2024/02/14 12:40:20;;;;;;;;;;;14.00;99.90;;;;;;6217811;23;24085;-80
2024/02/14 12:42:45;;;;;;;;;;;13.90;99.90;;;;;;6216595;23;19911;-80
2024/02/14 12:45:11;;;;;;;;;;;13.90;99.90;;;;;;6216245;23;19900;-80
2024/02/14 12:47:36;;;;;;;;;;;13.60;99.90;;;;;;6217125;23;19954;-81
2024/02/14 12:50:02;;;;;;;;;;;13.40;99.90;;;;;;6217444;23;19906;-81
2024/02/14 12:52:28;;;;;;;;;;;13.20;99.90;;;;;;6217696;23;19971;-81
2024/02/14 12:54:53;;;;;;;;;;;13.10;99.90;;;;;;6216665;23;20023;-80
2024/02/14 12:57:21;;;;;;;;;;;12.90;99.90;;;;;;6216673;23;19904;-80
2024/02/14 12:59:46;;;;;;;;;;;12.80;99.90;;;;;;6216818;23;19952;-81
2024/02/14 13:02:12;;;;;;;;;;;12.80;99.90;;;;;;6216558;23;19904;-80
2024/02/14 13:04:38;;;;;;;;;;;12.80;99.90;;;;;;6215857;23;19900;-80
2024/02/14 13:07:04;;;;;;;;;;;12.80;99.90;;;;;;6216914;23;19900;-81